createdAt,value
2018-08-25T00:02:08.427Z,14.90
2018-08-25T00:04:37.232Z,14.80
2018-08-25T00:07:06.017Z,14.80
2018-08-25T00:09:34.842Z,14.70
2018-08-25T00:12:03.680Z,14.70
2018-08-25T00:14:32.472Z,14.70
2018-08-25T00:17:01.343Z,14.60
2018-08-25T00:19:30.275Z,14.50
2018-08-25T00:21:59.092Z,14.40
2018-08-25T00:24:27.909Z,14.40
2018-08-25T00:26:56.776Z,14.40
2018-08-25T00:29:25.612Z,14.40
2018-08-25T00:31:54.500Z,14.30
2018-08-25T00:34:23.426Z,14.20
2018-08-25T00:36:52.196Z,14.10
2018-08-25T00:39:21.047Z,14.00
2018-08-25T00:41:49.892Z,13.80
2018-08-25T00:44:18.806Z,13.70
2018-08-25T00:46:47.641Z,13.70
2018-08-25T00:49:16.473Z,13.70
2018-08-25T00:51:45.368Z,13.80
2018-08-25T00:54:14.215Z,13.80
2018-08-25T00:56:43.156Z,13.80
2018-08-25T00:59:12.004Z,13.70
2018-08-25T01:01:40.831Z,13.80
2018-08-25T01:04:09.640Z,13.80
2018-08-25T01:06:38.576Z,13.90
2018-08-25T01:09:09.056Z,13.80
2018-08-25T01:11:37.886Z,13.80
2018-08-25T01:14:06.803Z,13.80
2018-08-25T01:16:35.578Z,13.70
2018-08-25T01:19:04.448Z,13.60
2018-08-25T01:21:33.256Z,13.70
2018-08-25T01:24:02.130Z,13.70
2018-08-25T01:26:30.905Z,13.80
2018-08-25T01:28:59.695Z,13.90
2018-08-25T01:31:29.351Z,13.90
2018-08-25T01:34:00.072Z,14.00
2018-08-25T01:36:29.021Z,14.00
2018-08-25T01:38:57.905Z,14.10
2018-08-25T01:41:26.766Z,14.00
2018-08-25T01:43:55.548Z,13.90
2018-08-25T01:46:24.727Z,13.60
2018-08-25T01:48:53.657Z,13.50
2018-08-25T01:51:22.448Z,13.60
2018-08-25T01:53:51.338Z,13.60
2018-08-25T01:56:20.156Z,13.70
2018-08-25T01:58:49.038Z,13.80
2018-08-25T02:01:17.842Z,13.80
2018-08-25T02:03:46.649Z,13.80
2018-08-25T02:06:15.572Z,13.90
2018-08-25T02:08:44.358Z,13.90
2018-08-25T02:11:13.187Z,13.90
2018-08-25T02:13:41.987Z,13.80
2018-08-25T02:16:10.841Z,13.60
2018-08-25T02:18:39.646Z,13.60
2018-08-25T02:21:08.485Z,13.70
2018-08-25T02:23:37.286Z,13.70
2018-08-25T02:26:06.134Z,13.80
2018-08-25T02:28:35.260Z,13.90
2018-08-25T02:31:04.116Z,13.90
2018-08-25T02:33:33.105Z,13.90
2018-08-25T02:36:02.283Z,13.70
2018-08-25T02:38:31.128Z,13.70
2018-08-25T02:40:59.929Z,13.60
2018-08-25T02:43:29.698Z,13.50
2018-08-25T02:45:58.461Z,13.50
2018-08-25T02:48:27.354Z,13.50
2018-08-25T02:50:56.149Z,13.50
2018-08-25T02:53:24.944Z,13.50
2018-08-25T02:55:53.773Z,13.40
2018-08-25T02:58:22.551Z,13.20
2018-08-25T03:00:51.433Z,13.20
2018-08-25T03:03:20.301Z,13.10
2018-08-25T03:05:49.093Z,12.90
2018-08-25T03:08:17.873Z,12.80
2018-08-25T03:10:46.689Z,12.90
2018-08-25T03:13:15.520Z,12.80
2018-08-25T03:15:45.201Z,12.80
2018-08-25T03:18:13.988Z,12.80
2018-08-25T03:20:42.805Z,12.80
2018-08-25T03:23:11.625Z,12.70
2018-08-25T03:25:40.413Z,12.70
2018-08-25T03:28:09.207Z,12.70
2018-08-25T03:30:38.035Z,12.70
2018-08-25T03:33:07.225Z,12.70
2018-08-25T03:35:36.024Z,12.60
2018-08-25T03:38:04.852Z,12.60
2018-08-25T03:40:33.693Z,12.60
2018-08-25T03:43:02.485Z,12.70
2018-08-25T03:45:31.297Z,12.70
2018-08-25T03:48:00.078Z,12.80
2018-08-25T03:50:29.023Z,12.70
2018-08-25T03:52:57.787Z,12.80
2018-08-25T03:55:26.658Z,12.80
2018-08-25T03:57:55.427Z,12.70
2018-08-25T04:00:24.206Z,12.70
2018-08-25T04:02:53.038Z,12.70
2018-08-25T04:05:21.903Z,12.70
2018-08-25T04:07:50.707Z,12.70
2018-08-25T04:10:19.899Z,12.70
2018-08-25T04:12:48.648Z,12.80
2018-08-25T04:15:17.416Z,12.80
2018-08-25T04:17:46.273Z,12.80
2018-08-25T04:20:15.450Z,12.80
2018-08-25T04:22:44.269Z,12.70
2018-08-25T04:25:13.104Z,12.70
2018-08-25T04:27:41.923Z,12.60
2018-08-25T04:30:10.738Z,12.60
2018-08-25T04:32:39.584Z,12.60
2018-08-25T04:35:08.434Z,12.70
2018-08-25T04:37:37.384Z,12.70
2018-08-25T04:40:06.268Z,12.80
2018-08-25T04:42:35.094Z,12.80
2018-08-25T04:45:04.020Z,12.70
2018-08-25T04:47:33.603Z,12.70
2018-08-25T04:50:06.944Z,12.70
2018-08-25T04:52:38.171Z,12.70
2018-08-25T04:55:07.008Z,12.80
2018-08-25T04:57:35.883Z,13.00
2018-08-25T05:00:05.755Z,12.90
2018-08-25T05:02:39.930Z,12.90
2018-08-25T05:05:08.729Z,12.80
2018-08-25T05:07:37.981Z,12.80
2018-08-25T05:10:06.749Z,12.90
2018-08-25T05:12:35.583Z,12.80
2018-08-25T05:15:10.888Z,12.80
2018-08-25T05:17:39.668Z,12.80
2018-08-25T05:20:08.541Z,12.90
2018-08-25T05:22:37.369Z,12.90
2018-08-25T05:25:07.010Z,13.00
2018-08-25T05:27:35.841Z,13.00
2018-08-25T05:30:05.012Z,12.90
2018-08-25T05:32:34.201Z,12.80
2018-08-25T05:35:02.981Z,12.70
2018-08-25T05:37:31.955Z,12.70
2018-08-25T05:40:00.798Z,12.70
2018-08-25T05:42:29.775Z,12.70
2018-08-25T05:44:58.629Z,12.70
2018-08-25T05:47:27.434Z,12.70
2018-08-25T05:49:56.185Z,12.70
2018-08-25T05:52:25.024Z,12.70
2018-08-25T05:54:53.809Z,12.80
2018-08-25T05:57:22.577Z,13.00
2018-08-25T05:59:51.458Z,13.00
2018-08-25T06:02:20.279Z,13.00
2018-08-25T06:04:49.037Z,13.00
2018-08-25T06:07:17.876Z,13.00
2018-08-25T06:09:46.711Z,13.00
2018-08-25T06:12:15.528Z,13.00
2018-08-25T06:14:44.281Z,13.10
2018-08-25T06:17:13.040Z,13.10
2018-08-25T06:19:42.324Z,13.20
2018-08-25T06:22:11.132Z,13.30
2018-08-25T06:24:39.978Z,13.30
2018-08-25T06:27:08.786Z,13.30
2018-08-25T06:29:37.549Z,13.30
2018-08-25T06:32:06.408Z,13.30
2018-08-25T06:34:35.178Z,13.40
2018-08-25T06:37:03.993Z,13.50
2018-08-25T06:39:32.764Z,13.50
2018-08-25T06:42:01.550Z,13.60
2018-08-25T06:44:30.421Z,13.60
2018-08-25T06:46:59.185Z,13.70
2018-08-25T06:49:28.018Z,13.70
2018-08-25T06:51:56.830Z,13.80
2018-08-25T06:54:25.661Z,13.60
2018-08-25T06:56:54.457Z,13.70
2018-08-25T06:59:23.276Z,13.70
2018-08-25T07:01:52.656Z,13.70
2018-08-25T07:04:21.442Z,13.70
2018-08-25T07:06:50.219Z,13.70
2018-08-25T07:09:19.015Z,13.50
2018-08-25T07:11:47.785Z,13.50
2018-08-25T07:14:16.624Z,13.70
2018-08-25T07:16:45.426Z,13.50
2018-08-25T07:19:14.253Z,13.60
2018-08-25T07:21:43.061Z,13.70
2018-08-25T07:24:11.847Z,13.70
2018-08-25T07:26:40.709Z,13.70
2018-08-25T07:29:09.484Z,13.80
2018-08-25T07:31:38.896Z,13.80
2018-08-25T07:34:11.305Z,13.90
2018-08-25T07:36:40.486Z,13.80
2018-08-25T07:39:12.416Z,13.90
2018-08-25T07:41:41.350Z,13.90
2018-08-25T07:44:11.601Z,14.00
2018-08-25T07:46:40.519Z,14.00
2018-08-25T07:49:11.357Z,14.00
2018-08-25T07:51:41.218Z,13.90
2018-08-25T07:54:10.454Z,13.90
2018-08-25T07:56:40.781Z,13.90
2018-08-25T07:59:13.723Z,14.10
2018-08-25T08:01:43.186Z,14.20
2018-08-25T08:04:12.319Z,14.20
2018-08-25T08:06:45.351Z,14.20
2018-08-25T08:09:14.320Z,14.10
2018-08-25T08:11:43.595Z,14.30
2018-08-25T08:14:13.263Z,14.50
2018-08-25T08:16:42.410Z,14.60
2018-08-25T08:19:15.299Z,14.80
2018-08-25T08:21:44.316Z,14.90
2018-08-25T08:24:13.150Z,15.10
2018-08-25T08:26:42.000Z,15.10
2018-08-25T08:29:10.785Z,15.10
2018-08-25T08:31:39.689Z,15.10
2018-08-25T08:34:08.748Z,15.20
2018-08-25T08:36:37.537Z,15.50
2018-08-25T08:39:09.386Z,15.60
2018-08-25T08:41:38.756Z,15.50
2018-08-25T08:44:07.899Z,15.60
2018-08-25T08:46:37.427Z,15.80
2018-08-25T08:49:08.972Z,15.80
2018-08-25T08:51:39.603Z,15.80
2018-08-25T08:54:09.810Z,15.80
2018-08-25T08:56:40.383Z,16.10
2018-08-25T08:59:11.135Z,16.30
2018-08-25T09:01:42.184Z,16.10
2018-08-25T09:04:14.096Z,16.00
2018-08-25T09:06:44.648Z,16.30
2018-08-25T09:09:13.451Z,16.50
2018-08-25T09:11:42.246Z,16.80
2018-08-25T09:14:11.404Z,16.70
2018-08-25T09:16:40.175Z,16.70
2018-08-25T09:19:15.220Z,17.00
2018-08-25T09:21:44.098Z,17.00
2018-08-25T09:24:15.086Z,17.20
2018-08-25T09:26:43.949Z,17.20
2018-08-25T09:29:12.775Z,17.60
2018-08-25T09:31:43.761Z,17.90
2018-08-25T09:34:14.349Z,18.50
2018-08-25T09:36:43.602Z,18.90
2018-08-25T09:39:12.360Z,19.30
2018-08-25T09:41:41.559Z,19.70
2018-08-25T09:44:10.349Z,19.80
2018-08-25T09:46:39.124Z,19.40
2018-08-25T09:49:07.939Z,19.50
2018-08-25T09:51:36.701Z,19.80
2018-08-25T09:54:05.549Z,19.90
2018-08-25T09:56:34.303Z,19.60
2018-08-25T09:59:03.164Z,19.40
2018-08-25T10:01:36.965Z,19.60
2018-08-25T10:04:05.952Z,19.60
2018-08-25T10:06:34.929Z,19.80
2018-08-25T10:09:05.042Z,19.60
2018-08-25T10:11:33.999Z,19.90
2018-08-25T10:14:02.967Z,20.20
2018-08-25T10:16:31.916Z,20.60
2018-08-25T10:19:00.782Z,20.90
2018-08-25T10:21:29.628Z,20.90
2018-08-25T10:24:01.217Z,20.60
2018-08-25T10:26:30.923Z,20.80
2018-08-25T10:29:01.685Z,20.80
2018-08-25T10:31:32.211Z,21.00
2018-08-25T10:34:02.285Z,20.70
2018-08-25T10:36:31.422Z,21.20
2018-08-25T10:39:01.934Z,21.50
2018-08-25T10:41:31.427Z,21.60
2018-08-25T10:44:00.234Z,21.60
2018-08-25T10:46:29.590Z,21.40
2018-08-25T10:48:58.382Z,21.10
2018-08-25T10:51:29.351Z,21.20
2018-08-25T10:54:09.093Z,21.30
2018-08-25T10:56:38.583Z,21.20
2018-08-25T10:59:07.442Z,20.90
2018-08-25T11:01:36.289Z,20.80
2018-08-25T11:04:12.761Z,20.00
2018-08-25T11:06:42.094Z,19.10
2018-08-25T11:09:13.607Z,18.30
2018-08-25T11:11:42.512Z,17.80
2018-08-25T11:14:11.577Z,17.90
2018-08-25T11:16:40.382Z,18.60
2018-08-25T11:19:09.198Z,19.10
2018-08-25T11:21:37.988Z,19.40
2018-08-25T11:24:06.799Z,19.80
2018-08-25T11:26:35.688Z,20.40
2018-08-25T11:29:04.552Z,20.80
2018-08-25T11:31:33.325Z,20.50
2018-08-25T11:34:02.331Z,20.60
2018-08-25T11:36:31.190Z,20.90
2018-08-25T11:38:59.993Z,20.60
2018-08-25T11:41:28.809Z,20.90
2018-08-25T11:43:57.627Z,21.10
2018-08-25T11:46:26.420Z,20.80
2018-08-25T11:48:55.293Z,20.90
2018-08-25T11:51:24.125Z,21.20
2018-08-25T11:53:52.917Z,21.50
2018-08-25T11:56:21.733Z,21.60
2018-08-25T11:58:50.520Z,21.40
2018-08-25T12:01:19.330Z,21.30
2018-08-25T12:03:48.112Z,21.10
2018-08-25T12:06:16.992Z,21.40
2018-08-25T12:08:45.806Z,21.80
2018-08-25T12:11:14.582Z,21.90
2018-08-25T12:13:43.743Z,21.70
2018-08-25T12:16:12.959Z,21.20
2018-08-25T12:18:41.929Z,21.00
2018-08-25T12:21:10.712Z,20.50
2018-08-25T12:23:39.520Z,20.20
2018-08-25T12:26:08.400Z,19.90
2018-08-25T12:28:37.243Z,19.60
2018-08-25T12:31:06.077Z,19.50
2018-08-25T12:33:34.894Z,18.80
2018-08-25T12:36:03.890Z,18.50
2018-08-25T12:38:32.790Z,18.20
2018-08-25T12:41:01.576Z,18.00
2018-08-25T12:43:30.516Z,18.00
2018-08-25T12:45:59.303Z,18.20
2018-08-25T12:48:28.960Z,18.60
2018-08-25T12:50:57.791Z,19.40
2018-08-25T12:53:26.609Z,20.20
2018-08-25T12:55:55.486Z,20.80
2018-08-25T12:58:24.974Z,21.20
2018-08-25T13:00:53.828Z,22.00
2018-08-25T13:03:22.677Z,22.60
2018-08-25T13:05:51.435Z,22.90
2018-08-25T13:08:20.276Z,23.40
2018-08-25T13:10:49.157Z,24.30
2018-08-25T13:13:17.960Z,24.30
2018-08-25T13:15:47.100Z,23.70
2018-08-25T13:18:15.893Z,22.80
2018-08-25T13:20:44.684Z,21.80
2018-08-25T13:23:13.459Z,20.90
2018-08-25T13:25:42.264Z,20.10
2018-08-25T13:28:11.464Z,19.50
2018-08-25T13:30:40.701Z,18.80
2018-08-25T13:33:09.534Z,18.10
2018-08-25T13:35:38.652Z,17.40
2018-08-25T13:38:07.483Z,16.60
2018-08-25T13:40:36.409Z,16.10
2018-08-25T13:43:05.268Z,15.90
2018-08-25T13:45:34.149Z,15.60
2018-08-25T13:48:02.944Z,15.50
2018-08-25T13:50:31.769Z,15.50
2018-08-25T13:53:00.628Z,15.40
2018-08-25T13:55:29.485Z,15.70
2018-08-25T13:57:58.241Z,16.20
2018-08-25T14:00:27.048Z,16.40
2018-08-25T14:02:55.929Z,16.70
2018-08-25T14:05:25.143Z,16.90
2018-08-25T14:07:53.940Z,16.90
2018-08-25T14:10:22.851Z,17.10
2018-08-25T14:12:51.748Z,17.20
2018-08-25T14:15:21.883Z,17.50
2018-08-25T14:17:50.923Z,17.70
2018-08-25T14:20:19.733Z,17.60
2018-08-25T14:22:48.553Z,17.70
2018-08-25T14:25:17.356Z,17.50
2018-08-25T14:27:47.340Z,17.30
2018-08-25T14:30:16.184Z,16.90
2018-08-25T14:32:45.361Z,16.60
2018-08-25T14:35:14.151Z,16.30
2018-08-25T14:37:42.922Z,16.10
2018-08-25T14:40:11.802Z,15.90
2018-08-25T14:42:40.567Z,15.90
2018-08-25T14:45:09.337Z,15.90
2018-08-25T14:47:38.147Z,16.00
2018-08-25T14:50:07.597Z,16.10
2018-08-25T14:52:43.899Z,16.10
2018-08-25T14:55:17.349Z,16.50
2018-08-25T14:57:46.149Z,16.80
2018-08-25T15:00:16.326Z,17.10
2018-08-25T15:02:46.840Z,17.20
2018-08-25T15:05:15.700Z,17.20
2018-08-25T15:07:44.446Z,17.30
2018-08-25T15:10:15.907Z,17.70
2018-08-25T15:12:44.782Z,17.70
2018-08-25T15:15:15.568Z,17.90
2018-08-25T15:17:47.053Z,18.10
2018-08-25T15:20:15.923Z,18.30
2018-08-25T15:22:45.450Z,18.40
2018-08-25T15:25:15.565Z,18.50
2018-08-25T15:27:44.824Z,18.50
2018-08-25T15:30:15.143Z,18.40
2018-08-25T15:32:51.636Z,18.40
2018-08-25T15:35:21.582Z,18.40
2018-08-25T15:37:50.714Z,18.60
2018-08-25T15:40:22.015Z,18.90
2018-08-25T15:42:53.216Z,18.60
2018-08-25T15:45:23.187Z,18.70
2018-08-25T15:47:51.988Z,18.60
2018-08-25T15:50:20.781Z,18.60
2018-08-25T15:52:49.985Z,18.30
2018-08-25T15:55:20.220Z,18.30
2018-08-25T15:57:50.567Z,18.10
2018-08-25T16:00:20.850Z,17.80
2018-08-25T16:02:51.618Z,17.60
2018-08-25T16:05:20.499Z,17.40
2018-08-25T16:07:49.323Z,17.40
2018-08-25T16:10:18.949Z,17.30
2018-08-25T16:12:50.359Z,17.00
2018-08-25T16:15:24.096Z,16.80
2018-08-25T16:17:53.389Z,16.70
2018-08-25T16:20:22.319Z,16.60
2018-08-25T16:22:51.135Z,16.40
2018-08-25T16:25:20.224Z,16.40
2018-08-25T16:27:49.483Z,16.60
2018-08-25T16:30:18.928Z,16.80
2018-08-25T16:32:49.578Z,17.00
2018-08-25T16:35:18.451Z,16.90
2018-08-25T16:37:47.245Z,17.10
2018-08-25T16:40:16.171Z,17.00
2018-08-25T16:42:45.141Z,17.00
2018-08-25T16:45:14.370Z,17.20
2018-08-25T16:47:44.018Z,17.20
2018-08-25T16:50:12.894Z,17.30
2018-08-25T16:52:41.974Z,16.90
2018-08-25T16:55:10.800Z,17.00
2018-08-25T16:57:39.659Z,16.60
2018-08-25T17:00:09.422Z,16.60
2018-08-25T17:02:39.305Z,16.60
2018-08-25T17:05:10.130Z,16.30
2018-08-25T17:07:39.708Z,16.40
2018-08-25T17:10:09.276Z,16.30
2018-08-25T17:12:39.171Z,16.30
2018-08-25T17:15:08.247Z,16.10
2018-08-25T17:17:37.162Z,16.10
2018-08-25T17:20:06.304Z,16.00
2018-08-25T17:22:36.607Z,15.90
2018-08-25T17:25:08.240Z,15.90
2018-08-25T17:27:39.521Z,15.70
2018-08-25T17:30:09.854Z,15.50
2018-08-25T17:32:38.739Z,15.30
2018-08-25T17:35:08.120Z,15.10
2018-08-25T17:37:37.920Z,15.00
2018-08-25T17:40:07.357Z,15.00
2018-08-25T17:42:36.957Z,15.10
2018-08-25T17:45:07.771Z,15.20
2018-08-25T17:47:42.860Z,15.30
2018-08-25T17:50:26.017Z,15.30
2018-08-25T17:52:55.560Z,15.20
2018-08-25T17:55:24.811Z,14.90
2018-08-25T17:57:53.609Z,14.90
2018-08-25T18:00:22.794Z,14.80
2018-08-25T18:02:51.570Z,14.90
2018-08-25T18:05:20.370Z,15.00
2018-08-25T18:07:49.206Z,14.90
2018-08-25T18:10:18.153Z,14.60
2018-08-25T18:12:46.922Z,14.40
2018-08-25T18:15:15.784Z,14.30
2018-08-25T18:17:45.559Z,14.30
2018-08-25T18:20:15.022Z,14.30
2018-08-25T18:22:44.461Z,14.30
2018-08-25T18:25:14.480Z,14.30
2018-08-25T18:27:44.841Z,14.20
2018-08-25T18:30:13.691Z,14.10
2018-08-25T18:32:42.601Z,14.20
2018-08-25T18:35:11.385Z,14.30
2018-08-25T18:37:40.963Z,14.20
2018-08-25T18:40:10.925Z,14.20
2018-08-25T18:42:39.689Z,14.10
2018-08-25T18:45:08.979Z,13.90
2018-08-25T18:47:37.902Z,13.90
2018-08-25T18:50:07.461Z,13.70
2018-08-25T18:52:36.546Z,13.60
2018-08-25T18:55:05.596Z,13.40
2018-08-25T18:57:34.924Z,13.40
2018-08-25T19:00:03.951Z,13.30
2018-08-25T19:02:32.730Z,13.40
2018-08-25T19:05:01.869Z,13.50
2018-08-25T19:07:31.227Z,13.60
2018-08-25T19:09:59.993Z,13.70
2018-08-25T19:12:28.863Z,13.60
2018-08-25T19:14:58.064Z,13.70
2018-08-25T19:17:26.894Z,13.90
2018-08-25T19:19:55.677Z,14.10
2018-08-25T19:22:24.473Z,14.20
2018-08-25T19:24:53.224Z,14.40
2018-08-25T19:27:22.805Z,14.40
2018-08-25T19:29:51.920Z,14.40
2018-08-25T19:32:20.646Z,14.40
2018-08-25T19:34:50.735Z,14.40
2018-08-25T19:37:20.641Z,14.40
2018-08-25T19:39:50.381Z,14.20
2018-08-25T19:42:19.351Z,14.10
2018-08-25T19:44:48.494Z,14.10
2018-08-25T19:47:17.370Z,14.00
2018-08-25T19:49:46.790Z,14.00
2018-08-25T19:52:17.437Z,13.90
2018-08-25T19:54:46.216Z,13.90
2018-08-25T19:57:15.062Z,13.80
2018-08-25T19:59:44.021Z,13.90
2018-08-25T20:02:12.784Z,13.80
2018-08-25T20:04:41.749Z,13.70
2018-08-25T20:07:11.850Z,13.70
2018-08-25T20:09:40.856Z,13.70
2018-08-25T20:12:11.438Z,13.70
2018-08-25T20:14:40.301Z,13.60
2018-08-25T20:17:13.703Z,13.60
2018-08-25T20:19:43.940Z,13.60
2018-08-25T20:22:13.677Z,13.50
2018-08-25T20:24:42.804Z,13.50
2018-08-25T20:27:11.875Z,13.50
2018-08-25T20:29:40.735Z,13.50
2018-08-25T20:32:09.549Z,13.50
2018-08-25T20:34:38.359Z,13.50
2018-08-25T20:37:07.748Z,13.50
2018-08-25T20:39:36.517Z,13.40
2018-08-25T20:42:05.412Z,13.50
2018-08-25T20:44:34.218Z,13.50
2018-08-25T20:47:03.016Z,13.50
2018-08-25T20:49:31.796Z,13.50
2018-08-25T20:52:00.598Z,13.50
2018-08-25T20:54:40.785Z,13.60
2018-08-25T20:57:09.792Z,13.60
2018-08-25T20:59:38.623Z,13.50
2018-08-25T21:02:07.584Z,13.50
2018-08-25T21:04:36.402Z,13.40
2018-08-25T21:07:05.340Z,13.40
2018-08-25T21:09:34.128Z,13.40
2018-08-25T21:12:02.908Z,13.40
2018-08-25T21:14:31.785Z,13.30
2018-08-25T21:17:00.617Z,13.30
2018-08-25T21:19:29.478Z,13.30
2018-08-25T21:21:58.358Z,13.30
2018-08-25T21:24:27.189Z,13.30
2018-08-25T21:26:56.229Z,13.20
2018-08-25T21:29:25.046Z,13.20
2018-08-25T21:31:53.864Z,13.20
2018-08-25T21:34:22.778Z,13.30
2018-08-25T21:36:51.605Z,13.30
2018-08-25T21:39:28.272Z,13.30
2018-08-25T21:42:04.670Z,13.30
2018-08-25T21:44:41.172Z,13.30
2018-08-25T21:47:18.370Z,13.20
2018-08-25T21:49:55.872Z,13.20
2018-08-25T21:52:34.361Z,13.20
2018-08-25T21:55:03.669Z,13.30
2018-08-25T21:57:32.529Z,13.40
2018-08-25T22:00:01.379Z,13.40
2018-08-25T22:02:30.208Z,13.40
2018-08-25T22:04:59.028Z,13.30
2018-08-25T22:07:27.802Z,13.30
2018-08-25T22:09:56.679Z,13.30
2018-08-25T22:12:25.497Z,13.30
2018-08-25T22:14:54.347Z,13.20
2018-08-25T22:17:25.433Z,13.30
2018-08-25T22:19:54.289Z,13.20
2018-08-25T22:22:23.062Z,13.10
2018-08-25T22:24:51.814Z,13.20
2018-08-25T22:27:20.645Z,13.10
2018-08-25T22:29:49.424Z,13.20
2018-08-25T22:32:18.194Z,13.10
2018-08-25T22:34:48.645Z,13.10
2018-08-25T22:37:17.466Z,13.00
2018-08-25T22:39:46.260Z,12.90
2018-08-25T22:42:15.214Z,12.80
2018-08-25T22:44:43.972Z,12.90
2018-08-25T22:47:12.778Z,12.80
2018-08-25T22:49:41.608Z,12.90
2018-08-25T22:52:10.394Z,12.80
2018-08-25T22:54:39.234Z,12.80
2018-08-25T22:57:08.009Z,12.80
2018-08-25T22:59:36.829Z,12.80
2018-08-25T23:02:05.702Z,12.80
2018-08-25T23:04:34.467Z,12.70
2018-08-25T23:07:03.288Z,12.80
2018-08-25T23:09:32.057Z,12.70
2018-08-25T23:12:00.908Z,12.70
2018-08-25T23:14:29.788Z,12.70
2018-08-25T23:16:58.592Z,12.70
2018-08-25T23:19:27.381Z,12.70
2018-08-25T23:21:56.399Z,12.70
2018-08-25T23:24:25.172Z,12.70
2018-08-25T23:26:53.966Z,12.60
2018-08-25T23:29:22.808Z,12.60
2018-08-25T23:31:51.603Z,12.50
2018-08-25T23:34:20.382Z,12.50
2018-08-25T23:36:49.220Z,12.50
2018-08-25T23:39:18.041Z,12.40
2018-08-25T23:41:46.794Z,12.20
2018-08-25T23:44:16.007Z,12.00
2018-08-25T23:46:44.765Z,11.90
2018-08-25T23:49:13.553Z,12.00
2018-08-25T23:51:42.391Z,12.00
2018-08-25T23:54:11.192Z,12.10
2018-08-25T23:56:40.350Z,12.10
2018-08-25T23:59:09.170Z,12.20
